Hermantown, Minnesota
Current Conditions -  °F | °C
As of 5:55 AM on Thursday 29 Jan 2015 (Local Time) from KDLH Reporting Station
Overcast Overcast  
Wind Chill: 16°   Ceiling: 1100
Heat Index: 28°   Visibility: 10mi
Dew Point: 23°   Wind: 17mph
Humidity: 81%   Direction: 330°NNW
Pressure: 29.93"   Gusts: 23mph
Location:  46.8401°N, 92.218°W
Report Text: KDLH 291155Z 33015G20KT 10SM OVC011 M02/M05 A2993 RMK AO2 PK WND 33026/1059 SLP156 60000 I6001 T10221050 11011 21022 53031
Loading
Personal Weather Stations






























Interactive Weather Map New forecast layout! Learn more

10-Day Weather Forecast

Advertisements
Track Severe Weather on mobile